createdAt,value
2018-09-27T00:00:55.045Z,42.03
2018-09-27T00:03:59.363Z,48.90
2018-09-27T00:07:03.652Z,39.50
2018-09-27T00:10:07.925Z,36.67
2018-09-27T00:13:12.230Z,54.57
2018-09-27T00:16:16.522Z,45.97
2018-09-27T00:19:20.797Z,42.67
2018-09-27T00:22:25.101Z,49.80
2018-09-27T00:25:29.414Z,35.03
2018-09-27T00:28:33.677Z,43.50
2018-09-27T00:31:38.628Z,41.03
2018-09-27T00:34:42.886Z,41.70
2018-09-27T00:37:47.174Z,37.40
2018-09-27T00:40:51.407Z,38.83
2018-09-27T00:43:56.229Z,41.67
2018-09-27T00:47:00.494Z,55.93
2018-09-27T00:50:04.918Z,40.37
2018-09-27T00:53:09.357Z,47.30
2018-09-27T00:56:13.630Z,43.60
2018-09-27T00:59:17.866Z,37.80
2018-09-27T01:02:22.135Z,42.50
2018-09-27T01:05:26.400Z,47.27
2018-09-27T01:08:30.631Z,42.63
2018-09-27T01:11:34.880Z,49.50
2018-09-27T01:14:39.126Z,53.03
2018-09-27T01:17:43.419Z,47.17
2018-09-27T01:20:47.737Z,46.37
2018-09-27T01:23:52.009Z,52.00
2018-09-27T01:26:56.334Z,38.73
2018-09-27T01:30:00.592Z,40.97
2018-09-27T01:33:04.858Z,39.50
2018-09-27T01:36:09.108Z,46.17
2018-09-27T01:39:13.390Z,43.60
2018-09-27T01:42:17.666Z,44.80
2018-09-27T01:45:21.929Z,44.50
2018-09-27T01:48:26.218Z,45.93
2018-09-27T01:51:30.488Z,43.03
2018-09-27T01:54:34.803Z,42.33
2018-09-27T01:57:39.079Z,50.77
2018-09-27T02:00:43.361Z,45.50
2018-09-27T02:03:47.622Z,51.20
2018-09-27T02:06:51.897Z,47.13
2018-09-27T02:09:56.162Z,45.20
2018-09-27T02:13:00.438Z,47.47
2018-09-27T02:16:04.688Z,46.13
2018-09-27T02:19:08.953Z,48.53
2018-09-27T02:22:13.246Z,48.50
2018-09-27T02:25:17.525Z,48.03
2018-09-27T02:28:21.801Z,42.50
2018-09-27T02:31:26.060Z,39.10
2018-09-27T02:34:31.026Z,40.27
2018-09-27T02:37:35.283Z,34.70
2018-09-27T02:40:39.569Z,35.67
2018-09-27T02:43:44.494Z,39.27
2018-09-27T02:46:48.773Z,41.93
2018-09-27T02:49:53.025Z,37.87
2018-09-27T02:52:57.337Z,41.97
2018-09-27T02:56:01.583Z,37.73
2018-09-27T02:59:07.063Z,39.67
2018-09-27T03:02:11.317Z,27.33
2018-09-27T03:05:15.600Z,28.63
2018-09-27T03:08:19.861Z,28.63
2018-09-27T03:11:24.155Z,29.70
2018-09-27T03:14:28.423Z,35.87
2018-09-27T03:17:32.691Z,34.33
2018-09-27T03:20:36.994Z,25.60
2018-09-27T03:23:41.255Z,28.07
2018-09-27T03:26:45.525Z,27.63
2018-09-27T03:29:49.769Z,32.47
2018-09-27T03:32:54.072Z,25.57
2018-09-27T03:35:58.677Z,34.93
2018-09-27T03:39:05.998Z,32.53
2018-09-27T03:42:10.321Z,34.47
2018-09-27T03:45:14.578Z,20.77
2018-09-27T03:48:18.837Z,26.97
2018-09-27T03:51:23.114Z,29.33
2018-09-27T03:54:27.413Z,30.00
2018-09-27T03:57:31.745Z,26.87
2018-09-27T04:00:36.018Z,26.17
2018-09-27T04:03:40.269Z,29.33
2018-09-27T04:06:45.576Z,34.13
2018-09-27T04:09:49.853Z,31.87
2018-09-27T04:12:54.143Z,33.80
2018-09-27T04:15:58.375Z,25.93
2018-09-27T04:19:02.831Z,21.47
2018-09-27T04:22:07.165Z,16.57
2018-09-27T04:25:11.435Z,20.93
2018-09-27T04:28:15.691Z,20.40
2018-09-27T04:31:19.971Z,21.10
2018-09-27T04:34:24.225Z,17.30
2018-09-27T04:37:28.873Z,18.47
2018-09-27T04:40:33.139Z,16.50
2018-09-27T04:43:37.425Z,21.63
2018-09-27T04:46:41.764Z,19.07
2018-09-27T04:49:46.010Z,18.97
2018-09-27T04:52:50.374Z,17.57
2018-09-27T04:55:54.732Z,23.77
2018-09-27T04:58:58.995Z,17.47
2018-09-27T05:02:03.251Z,20.00
2018-09-27T05:05:07.607Z,18.57
2018-09-27T05:08:11.876Z,24.57
2018-09-27T05:11:16.127Z,21.77
2018-09-27T05:14:20.397Z,23.30
2018-09-27T05:17:24.694Z,17.70
2018-09-27T05:20:28.972Z,19.93
2018-09-27T05:23:33.362Z,19.27
2018-09-27T05:26:37.648Z,23.30
2018-09-27T05:29:41.884Z,17.80
2018-09-27T05:32:46.134Z,16.57
2018-09-27T05:35:51.437Z,19.70
2018-09-27T05:38:55.737Z,13.97
2018-09-27T05:42:00.000Z,16.40
2018-09-27T05:45:04.274Z,27.17
2018-09-27T05:48:08.551Z,25.87
2018-09-27T05:51:12.807Z,22.50
2018-09-27T05:54:17.064Z,16.13
2018-09-27T05:57:21.349Z,19.47
2018-09-27T06:00:25.659Z,17.93
2018-09-27T06:03:29.955Z,16.93
2018-09-27T06:06:34.215Z,13.87
2018-09-27T06:09:38.532Z,18.33
2018-09-27T06:12:42.756Z,22.83
2018-09-27T06:15:47.005Z,19.80
2018-09-27T06:18:51.272Z,17.17
2018-09-27T06:21:55.523Z,20.93
2018-09-27T06:24:59.844Z,16.97
2018-09-27T06:28:04.082Z,16.23
2018-09-27T06:31:08.546Z,19.67
2018-09-27T06:34:12.836Z,23.83
2018-09-27T06:37:17.075Z,24.13
2018-09-27T06:40:21.346Z,23.00
2018-09-27T06:43:26.433Z,20.53
2018-09-27T06:46:30.719Z,19.30
2018-09-27T06:49:34.960Z,31.67
2018-09-27T06:52:39.259Z,36.67
2018-09-27T06:55:43.582Z,22.90
2018-09-27T06:58:47.796Z,31.63
2018-09-27T07:01:52.021Z,32.10
2018-09-27T07:04:56.295Z,30.90
2018-09-27T07:08:00.583Z,28.03
2018-09-27T07:11:04.822Z,32.60
2018-09-27T07:14:09.702Z,31.50
2018-09-27T07:17:13.974Z,28.03
2018-09-27T07:20:18.340Z,27.63
2018-09-27T07:23:22.573Z,23.53
2018-09-27T07:26:26.912Z,32.53
2018-09-27T07:29:31.097Z,40.57
2018-09-27T07:32:35.438Z,30.97
2018-09-27T07:35:39.624Z,26.97
2018-09-27T07:38:43.960Z,33.27
2018-09-27T07:41:48.149Z,26.90
2018-09-27T07:44:52.419Z,33.10
2018-09-27T07:47:56.663Z,35.97
2018-09-27T07:51:01.065Z,26.33
2018-09-27T07:54:05.345Z,26.83
2018-09-27T07:57:09.826Z,33.10
2018-09-27T08:00:14.082Z,28.17
2018-09-27T08:03:18.367Z,24.10
2018-09-27T08:06:22.664Z,25.33
2018-09-27T08:09:26.965Z,31.60
2018-09-27T08:12:31.255Z,31.33
2018-09-27T08:15:35.478Z,37.83
2018-09-27T08:18:39.771Z,60.47
2018-09-27T08:21:44.036Z,39.77
2018-09-27T08:24:48.416Z,32.07
2018-09-27T08:27:52.685Z,28.83
2018-09-27T08:30:57.238Z,37.17
2018-09-27T08:34:01.347Z,46.80
2018-09-27T08:37:05.802Z,29.53
2018-09-27T08:40:11.217Z,23.23
2018-09-27T08:43:15.483Z,32.53
2018-09-27T08:46:19.758Z,67.87
2018-09-27T08:49:24.029Z,36.97
2018-09-27T08:52:28.294Z,24.87
2018-09-27T08:55:32.595Z,84.47
2018-09-27T08:58:36.857Z,41.37
2018-09-27T09:01:41.124Z,47.53
2018-09-27T09:04:45.377Z,21.90
2018-09-27T09:07:49.587Z,25.50
2018-09-27T09:10:53.847Z,20.30
2018-09-27T09:13:58.099Z,21.80
2018-09-27T09:17:02.366Z,19.10
2018-09-27T09:20:07.196Z,28.03
2018-09-27T09:23:11.469Z,25.40
2018-09-27T09:26:15.762Z,21.63
2018-09-27T09:29:20.121Z,24.63
2018-09-27T09:32:24.395Z,25.07
2018-09-27T09:35:28.689Z,25.03
2018-09-27T09:38:32.959Z,33.23
2018-09-27T09:41:38.025Z,26.10
2018-09-27T09:44:42.281Z,28.80
2018-09-27T09:47:46.529Z,29.37
2018-09-27T09:50:51.622Z,22.23
2018-09-27T09:53:55.916Z,20.90
2018-09-27T09:57:00.179Z,25.07
2018-09-27T10:00:04.533Z,26.03
2018-09-27T10:03:09.384Z,25.63
2018-09-27T10:06:13.621Z,25.50
2018-09-27T10:09:17.885Z,31.13
2018-09-27T10:12:22.166Z,26.77
2018-09-27T10:15:26.446Z,28.43
2018-09-27T10:18:30.696Z,26.77
2018-09-27T10:21:35.011Z,26.27
2018-09-27T10:24:39.257Z,24.00
2018-09-27T10:27:43.570Z,18.20
2018-09-27T10:30:47.829Z,25.03
2018-09-27T10:33:52.797Z,23.80
2018-09-27T10:36:57.049Z,21.40
2018-09-27T10:40:01.324Z,27.77
2018-09-27T10:43:05.577Z,26.63
2018-09-27T10:46:09.847Z,28.23
2018-09-27T10:49:14.109Z,25.07
2018-09-27T10:52:18.446Z,25.80
2018-09-27T10:55:22.702Z,18.90
2018-09-27T10:58:26.984Z,21.03
2018-09-27T11:01:31.223Z,21.80
2018-09-27T11:04:35.494Z,25.77
2018-09-27T11:07:39.759Z,32.00
2018-09-27T11:10:44.024Z,22.73
2018-09-27T11:13:48.292Z,24.87
2018-09-27T11:16:52.563Z,24.93
2018-09-27T11:19:56.844Z,31.97
2018-09-27T11:23:01.119Z,31.47
2018-09-27T11:26:05.410Z,35.20
2018-09-27T11:29:15.823Z,42.40
2018-09-27T11:32:26.269Z,41.10
2018-09-27T11:35:30.524Z,51.87
2018-09-27T11:38:34.812Z,50.27
2018-09-27T11:41:39.078Z,51.03
2018-09-27T11:44:44.421Z,52.60
2018-09-27T11:47:48.675Z,44.30
2018-09-27T11:50:52.915Z,52.50
2018-09-27T11:53:57.193Z,46.87
2018-09-27T11:57:01.462Z,41.40
2018-09-27T12:00:06.259Z,36.07
2018-09-27T12:03:10.513Z,28.60
2018-09-27T12:06:14.781Z,29.73
2018-09-27T12:09:19.037Z,43.87
2018-09-27T12:12:24.548Z,23.53
2018-09-27T12:15:28.793Z,19.97
2018-09-27T12:18:33.082Z,23.83
2018-09-27T12:21:37.334Z,22.20
2018-09-27T12:24:41.646Z,17.40
2018-09-27T12:27:47.725Z,26.60
2018-09-27T12:30:52.012Z,26.30
2018-09-27T12:33:56.286Z,46.77
2018-09-27T12:37:00.554Z,25.27
2018-09-27T12:40:04.819Z,21.93
2018-09-27T12:43:09.199Z,22.13
2018-09-27T12:46:13.463Z,25.20
2018-09-27T12:49:17.744Z,25.33
2018-09-27T12:52:22.229Z,26.87
2018-09-27T12:55:26.264Z,22.60
2018-09-27T12:58:30.548Z,34.57
2018-09-27T13:01:34.902Z,33.63
2018-09-27T13:04:39.152Z,28.20
2018-09-27T13:07:43.406Z,27.83
2018-09-27T13:10:47.684Z,26.73
2018-09-27T13:13:51.932Z,31.43
2018-09-27T13:16:56.206Z,34.10
2018-09-27T13:20:00.510Z,23.03
2018-09-27T13:23:04.777Z,45.17
2018-09-27T13:26:09.125Z,31.40
2018-09-27T13:29:13.373Z,29.00
2018-09-27T13:32:17.649Z,30.57
2018-09-27T13:35:21.896Z,44.53
2018-09-27T13:38:26.187Z,29.90
2018-09-27T13:41:30.428Z,38.37
2018-09-27T13:44:34.705Z,23.57
2018-09-27T13:47:38.987Z,24.90
2018-09-27T13:50:43.265Z,22.70
2018-09-27T13:53:47.575Z,39.40
2018-09-27T13:56:51.893Z,46.27
2018-09-27T13:59:56.184Z,30.40
2018-09-27T14:03:00.475Z,26.80
2018-09-27T14:06:04.758Z,28.37
2018-09-27T14:09:09.721Z,23.93
2018-09-27T14:12:14.002Z,29.77
2018-09-27T14:15:18.268Z,28.97
2018-09-27T14:18:22.516Z,61.30
2018-09-27T14:21:26.775Z,28.00
2018-09-27T14:24:31.058Z,24.47
2018-09-27T14:27:35.304Z,75.77
2018-09-27T14:30:39.582Z,24.70
2018-09-27T14:33:43.878Z,50.23
2018-09-27T14:36:48.622Z,24.40
2018-09-27T14:39:53.864Z,31.47
2018-09-27T14:42:58.141Z,19.37
2018-09-27T14:46:02.371Z,23.77
2018-09-27T14:49:06.700Z,15.50
2018-09-27T14:52:10.960Z,22.47
2018-09-27T14:55:15.214Z,45.70
2018-09-27T14:58:19.463Z,23.20
2018-09-27T15:01:23.859Z,22.00
2018-09-27T15:04:28.107Z,18.83
2018-09-27T15:07:32.366Z,31.63
2018-09-27T15:10:36.623Z,41.23
2018-09-27T15:13:41.010Z,24.30
2018-09-27T15:16:45.279Z,19.33
2018-09-27T15:19:49.520Z,23.17
2018-09-27T15:22:54.125Z,21.93
2018-09-27T15:25:58.380Z,49.53
2018-09-27T15:29:02.650Z,20.00
2018-09-27T15:32:06.913Z,18.60
2018-09-27T15:35:11.216Z,35.57
2018-09-27T15:38:15.649Z,17.60
2018-09-27T15:41:19.971Z,27.67
2018-09-27T15:44:24.241Z,21.50
2018-09-27T15:47:29.872Z,23.37
2018-09-27T15:50:34.217Z,23.97
2018-09-27T15:53:38.479Z,18.70
2018-09-27T15:56:42.794Z,23.40
2018-09-27T15:59:47.082Z,16.13
2018-09-27T16:02:51.402Z,16.07
2018-09-27T16:05:55.701Z,14.07
2018-09-27T16:09:00.139Z,16.87
2018-09-27T16:12:04.352Z,18.70
2018-09-27T16:15:08.654Z,22.13
2018-09-27T16:18:12.964Z,14.73
2018-09-27T16:21:17.208Z,18.60
2018-09-27T16:24:21.519Z,17.47
2018-09-27T16:27:25.831Z,14.47
2018-09-27T16:30:30.109Z,19.53
2018-09-27T16:33:34.514Z,16.40
2018-09-27T16:36:38.885Z,34.33
2018-09-27T16:39:43.165Z,22.30
2018-09-27T16:42:47.459Z,14.60
2018-09-27T16:45:51.747Z,16.93
2018-09-27T16:48:56.060Z,15.03
2018-09-27T16:52:00.330Z,23.07
2018-09-27T16:55:05.153Z,23.10
2018-09-27T16:58:09.461Z,23.87
2018-09-27T17:01:13.800Z,21.77
2018-09-27T17:04:18.119Z,20.07
2018-09-27T17:07:22.349Z,19.83
2018-09-27T17:10:26.576Z,14.20
2018-09-27T17:13:30.859Z,16.97
2018-09-27T17:16:35.183Z,19.47
2018-09-27T17:19:39.428Z,22.07
2018-09-27T17:22:43.940Z,15.80
2018-09-27T17:25:48.184Z,20.37
2018-09-27T17:28:52.429Z,18.13
2018-09-27T17:31:56.678Z,15.73
2018-09-27T17:35:00.961Z,19.37
2018-09-27T17:38:05.224Z,21.47
2018-09-27T17:41:09.697Z,18.80
2018-09-27T17:44:13.973Z,19.40
2018-09-27T17:47:18.277Z,21.53
2018-09-27T17:50:22.562Z,22.67
2018-09-27T17:53:26.996Z,20.30
2018-09-27T17:56:31.213Z,21.33
2018-09-27T17:59:35.534Z,17.40
2018-09-27T18:02:39.856Z,18.50
2018-09-27T18:05:44.272Z,27.77
2018-09-27T18:08:48.512Z,19.50
2018-09-27T18:11:52.799Z,20.57
2018-09-27T18:14:57.146Z,30.03
2018-09-27T18:18:01.444Z,22.07
2018-09-27T18:21:05.706Z,21.13
2018-09-27T18:24:10.053Z,22.27
2018-09-27T18:27:14.391Z,26.87
2018-09-27T18:30:19.837Z,23.67
2018-09-27T18:33:24.425Z,24.77
2018-09-27T18:36:29.867Z,26.00
2018-09-27T18:39:34.392Z,26.97
2018-09-27T18:42:38.794Z,30.33
2018-09-27T18:45:43.263Z,26.53
2018-09-27T18:48:47.581Z,24.97
2018-09-27T18:51:51.873Z,18.97
2018-09-27T18:54:56.276Z,18.23
2018-09-27T18:58:00.805Z,21.50
2018-09-27T19:01:05.223Z,20.93
2018-09-27T19:04:09.786Z,24.23
2018-09-27T19:07:14.284Z,22.27
2018-09-27T19:10:18.575Z,26.80
2018-09-27T19:13:22.950Z,37.87
2018-09-27T19:16:27.191Z,36.27
2018-09-27T19:19:31.886Z,36.93
2018-09-27T19:22:36.420Z,39.30
2018-09-27T19:25:40.967Z,33.23
2018-09-27T19:28:45.455Z,30.23
2018-09-27T19:31:49.970Z,32.93
2018-09-27T19:34:54.348Z,29.10
2018-09-27T19:37:58.816Z,26.23
2018-09-27T19:41:03.113Z,28.53
2018-09-27T19:44:07.592Z,29.83
2018-09-27T19:47:12.123Z,33.77
2018-09-27T19:50:16.398Z,27.50
2018-09-27T19:53:20.723Z,22.43
2018-09-27T19:56:25.111Z,23.33
2018-09-27T19:59:29.610Z,19.93
2018-09-27T20:02:33.986Z,23.90
2018-09-27T20:05:38.480Z,21.83
2018-09-27T20:08:43.018Z,24.43
2018-09-27T20:11:47.536Z,32.10
2018-09-27T20:14:51.967Z,31.20
2018-09-27T20:17:57.301Z,24.73
2018-09-27T20:21:02.454Z,23.07
2018-09-27T20:24:06.765Z,36.47
2018-09-27T20:27:11.565Z,34.33
2018-09-27T20:30:15.836Z,33.37
2018-09-27T20:33:20.511Z,30.00
2018-09-27T20:36:25.312Z,25.30
2018-09-27T20:39:29.686Z,28.40
2018-09-27T20:42:33.933Z,22.13
2018-09-27T20:45:38.343Z,24.27
2018-09-27T20:48:42.592Z,17.97
2018-09-27T20:51:47.008Z,19.00
2018-09-27T20:54:51.281Z,29.70
2018-09-27T20:57:56.431Z,24.57
2018-09-27T21:01:00.737Z,18.17
2018-09-27T21:04:05.167Z,23.70
2018-09-27T21:07:09.408Z,26.27
2018-09-27T21:10:14.814Z,16.13
2018-09-27T21:13:20.177Z,15.90
2018-09-27T21:16:24.505Z,22.40
2018-09-27T21:19:30.068Z,29.23
2018-09-27T21:22:34.334Z,19.87
2018-09-27T21:25:38.692Z,27.13
2018-09-27T21:28:42.942Z,22.10
2018-09-27T21:31:47.248Z,21.20
2018-09-27T21:34:52.310Z,16.27
2018-09-27T21:37:56.833Z,20.60
2018-09-27T21:41:01.566Z,19.83
2018-09-27T21:44:09.700Z,18.47
2018-09-27T21:47:15.689Z,11.90
2018-09-27T21:50:20.648Z,10.77
2018-09-27T21:53:25.224Z,10.10
2018-09-27T21:56:29.485Z,8.27
2018-09-27T21:59:33.921Z,10.77
2018-09-27T22:02:38.169Z,7.30
2018-09-27T22:05:42.421Z,8.27
2018-09-27T22:08:46.683Z,8.63
2018-09-27T22:11:51.016Z,11.37
2018-09-27T22:14:55.563Z,11.33
2018-09-27T22:17:59.864Z,8.33
2018-09-27T22:21:04.099Z,7.23
2018-09-27T22:24:08.474Z,10.87
2018-09-27T22:27:12.830Z,9.63
2018-09-27T22:30:17.116Z,7.70
2018-09-27T22:33:21.389Z,11.17
2018-09-27T22:36:25.792Z,10.70
2018-09-27T22:39:30.080Z,10.67
2018-09-27T22:42:34.354Z,13.93
2018-09-27T22:45:38.669Z,8.97
2018-09-27T22:48:42.925Z,12.77
2018-09-27T22:51:47.251Z,9.00
2018-09-27T22:54:51.529Z,13.33
2018-09-27T22:57:55.885Z,14.33
2018-09-27T23:01:00.133Z,13.10
2018-09-27T23:04:04.404Z,11.83
2018-09-27T23:07:08.708Z,14.17
2018-09-27T23:10:12.975Z,9.93
2018-09-27T23:13:17.752Z,13.13
2018-09-27T23:16:22.010Z,12.27
2018-09-27T23:19:27.391Z,8.63
2018-09-27T23:22:31.665Z,12.27
2018-09-27T23:25:35.955Z,13.33
2018-09-27T23:28:40.211Z,11.50
2018-09-27T23:31:44.493Z,10.73
2018-09-27T23:34:48.763Z,11.03
2018-09-27T23:37:53.031Z,14.63
2018-09-27T23:40:57.276Z,13.30
2018-09-27T23:44:01.531Z,11.77
2018-09-27T23:47:05.821Z,17.33
2018-09-27T23:50:10.096Z,9.67
2018-09-27T23:53:14.348Z,13.93
2018-09-27T23:56:18.645Z,14.73
2018-09-27T23:59:22.913Z,11.43
